Strona główna
METAR-TAF:

METAR-TAF

Lotnisko :

Port lotniczy Gällivare

Gällivare, Szwecja

Szerokość geograficzna: 67-09N, Długość geograficzna: 020-39E, wysokość: 359 m

Aktualna obserwacja pogody

Raport powstał 28 minut temu, godzina 05:20 UTC
Wiatr 16 kt od północno-północny zachód
Temperatura 0°C
Wilgotność 59%
Ciśnienie 999 hPa
Widzialność 10 km lub więcej
Brak chmur poniżej 1500 m i brak chmur cumulonimbus

METAR: ESNG 090520Z 34016KT CAVOK 00/M07 Q0999

czas: 07:48 (05:48 UTC)

Prognoza

Raport powstał 18 minut temu, godzina 05:30 UTC
Prognoza ważna od 09 godzina 06 UTC do 09 godzina 15 UTC
Wiatr 13 kt od północny zachód
Widzialność 10 km lub więcej
Rozproszone chmury na wysokości 3000 ft

TAF: ESNG 090530Z 0906/0915 31013KT 9999 SCT030

Obserwacja i prognoza pogody dla ponad 4000 lotnisk (raport METAR i TAF).

Dostępne stacje oznaczono żółtymi i czerwonymi punktami na mapie.

Najedź kursorem aby zobaczyć nazwę stacji.

Kliknij aby zobaczyć obserwacje i prognozy pogody.

Aby zmienić mapę: kliknij na zielony przycisk z czarnym krzyżykiem, aby powiększyć; na zielony przycisk z myślnikiem, aby pomniejszyć; na zielone strzałki, aby przejść do map sąsiednich.


METAR-TAF: